sensor_id;sensor_type;location;lat;lon;timestamp;pressure;altitude;pressure_sealevel;temperature;humidity
47166;BME280;32930;51.112;13.762;2023-05-09T00:00:17;100109.56;;;11.87;51.28
47166;BME280;32930;51.112;13.762;2023-05-09T00:02:44;100107.03;;;11.91;50.81
47166;BME280;32930;51.112;13.762;2023-05-09T00:05:10;100107.00;;;11.88;50.66
47166;BME280;32930;51.112;13.762;2023-05-09T00:07:35;100104.59;;;12.06;50.93
47166;BME280;32930;51.112;13.762;2023-05-09T00:10:00;100102.75;;;11.89;51.04
47166;BME280;32930;51.112;13.762;2023-05-09T00:12:26;100102.53;;;11.70;50.55
47166;BME280;32930;51.112;13.762;2023-05-09T00:14:52;100104.38;;;11.83;50.60
47166;BME280;32930;51.112;13.762;2023-05-09T00:17:18;100107.66;;;11.69;49.93
47166;BME280;32930;51.112;13.762;2023-05-09T00:19:43;100099.19;;;11.80;50.18
47166;BME280;32930;51.112;13.762;2023-05-09T00:22:09;100100.22;;;11.98;49.94
47166;BME280;32930;51.112;13.762;2023-05-09T00:24:40;100097.41;;;11.70;50.09
47166;BME280;32930;51.112;13.762;2023-05-09T00:27:06;100092.25;;;11.70;50.55
47166;BME280;32930;51.112;13.762;2023-05-09T00:29:31;100093.00;;;11.60;50.11
47166;BME280;32930;51.112;13.762;2023-05-09T00:31:56;100095.47;;;11.48;50.53
47166;BME280;32930;51.112;13.762;2023-05-09T00:34:21;100098.72;;;11.34;50.91
47166;BME280;32930;51.112;13.762;2023-05-09T00:36:47;100090.22;;;11.40;50.56
47166;BME280;32930;51.112;13.762;2023-05-09T00:39:13;100085.78;;;11.25;51.42
47166;BME280;32930;51.112;13.762;2023-05-09T00:41:39;100083.28;;;11.31;50.96
47166;BME280;32930;51.112;13.762;2023-05-09T00:44:04;100077.44;;;11.45;50.77
47166;BME280;32930;51.112;13.762;2023-05-09T00:46:29;100074.66;;;11.23;51.50
47166;BME280;32930;51.112;13.762;2023-05-09T00:48:55;100076.53;;;11.38;50.73
47166;BME280;32930;51.112;13.762;2023-05-09T00:51:21;100077.25;;;11.26;50.77
47166;BME280;32930;51.112;13.762;2023-05-09T00:53:46;100077.44;;;11.45;50.71
47166;BME280;32930;51.112;13.762;2023-05-09T00:56:11;100075.81;;;11.51;50.92
47166;BME280;32930;51.112;13.762;2023-05-09T00:58:38;100078.97;;;11.26;50.96
47166;BME280;32930;51.112;13.762;2023-05-09T01:01:03;100077.28;;;11.29;50.91
47166;BME280;32930;51.112;13.762;2023-05-09T01:03:29;100075.44;;;11.16;51.21
47166;BME280;32930;51.112;13.762;2023-05-09T01:05:57;100074.63;;;11.20;50.96
47166;BME280;32930;51.112;13.762;2023-05-09T01:10:57;100068.50;;;11.10;51.54
47166;BME280;32930;51.112;13.762;2023-05-09T01:13:26;100064.38;;;11.23;51.64
47166;BME280;32930;51.112;13.762;2023-05-09T01:20:52;100058.25;;;11.12;51.36
47166;BME280;32930;51.112;13.762;2023-05-09T01:26:13;100052.50;;;10.61;52.53
47166;BME280;32930;51.112;13.762;2023-05-09T01:31:25;100054.53;;;10.87;52.45
47166;BME280;32930;51.112;13.762;2023-05-09T01:33:59;100043.63;;;11.05;51.89
47166;BME280;32930;51.112;13.762;2023-05-09T01:44:21;100041.28;;;11.26;51.85
47166;BME280;32930;51.112;13.762;2023-05-09T01:46:48;100040.81;;;10.83;52.54
47166;BME280;32930;51.112;13.762;2023-05-09T01:49:14;100041.81;;;10.95;52.05
47166;BME280;32930;51.112;13.762;2023-05-09T02:07:12;100023.31;;;10.52;53.45
47166;BME280;32930;51.112;13.762;2023-05-09T02:09:37;100029.53;;;10.69;53.15
47166;BME280;32930;51.112;13.762;2023-05-09T02:12:02;100027.69;;;10.62;53.17
47166;BME280;32930;51.112;13.762;2023-05-09T02:14:29;100025.88;;;10.50;53.21
47166;BME280;32930;51.112;13.762;2023-05-09T02:50:30;100016.53;;;10.57;53.19
47166;BME280;32930;51.112;13.762;2023-05-09T02:52:57;100011.28;;;10.48;53.12
47166;BME280;32930;51.112;13.762;2023-05-09T02:57:54;100008.91;;;10.02;53.65
47166;BME280;32930;51.112;13.762;2023-05-09T03:00:19;100004.19;;;10.28;52.97
47166;BME280;32930;51.112;13.762;2023-05-09T03:25:56;100006.09;;;10.43;52.17
47166;BME280;32930;51.112;13.762;2023-05-09T03:28:21;100006.72;;;10.27;52.13
47166;BME280;32930;51.112;13.762;2023-05-09T03:30:47;100002.56;;;10.36;51.98
47166;BME280;32930;51.112;13.762;2023-05-09T03:33:12;100003.16;;;10.17;52.92
47166;BME280;32930;51.112;13.762;2023-05-09T03:35:37;99996.34;;;10.19;52.24
47166;BME280;32930;51.112;13.762;2023-05-09T03:38:03;99997.53;;;10.41;52.05
47166;BME280;32930;51.112;13.762;2023-05-09T03:40:28;99995.53;;;10.23;52.20
47166;BME280;32930;51.112;13.762;2023-05-09T03:42:55;99994.47;;;10.06;52.56
47166;BME280;32930;51.112;13.762;2023-05-09T03:45:27;99999.59;;;10.06;52.80
47166;BME280;32930;51.112;13.762;2023-05-09T03:47:52;99995.31;;;10.08;52.37
47166;BME280;32930;51.112;13.762;2023-05-09T03:50:18;99985.56;;;10.43;51.78
47166;BME280;32930;51.112;13.762;2023-05-09T03:52:45;99991.81;;;10.01;52.30
47166;BME280;32930;51.112;13.762;2023-05-09T03:55:11;99986.31;;;9.75;52.63
47166;BME280;32930;51.112;13.762;2023-05-09T03:57:36;99991.31;;;10.25;52.37
47166;BME280;32930;51.112;13.762;2023-05-09T04:00:02;99993.13;;;9.74;52.47
47166;BME280;32930;51.112;13.762;2023-05-09T04:02:29;99980.66;;;9.97;52.44
47166;BME280;32930;51.112;13.762;2023-05-09T04:04:55;99979.78;;;9.97;52.43
47166;BME280;32930;51.112;13.762;2023-05-09T04:07:20;99980.16;;;10.21;52.15
47166;BME280;32930;51.112;13.762;2023-05-09T04:09:46;99984.44;;;10.24;52.26
47166;BME280;32930;51.112;13.762;2023-05-09T04:12:11;99990.31;;;10.15;52.14
47166;BME280;32930;51.112;13.762;2023-05-09T04:14:37;99985.31;;;10.25;51.70
47166;BME280;32930;51.112;13.762;2023-05-09T04:22:13;99991.03;;;10.07;51.74
47166;BME280;32930;51.112;13.762;2023-05-09T04:24:38;99989.97;;;10.52;51.64
47166;BME280;32930;51.112;13.762;2023-05-09T04:27:03;99987.31;;;10.46;51.17
47166;BME280;32930;51.112;13.762;2023-05-09T04:39:48;99981.66;;;10.73;50.38
47166;BME280;32930;51.112;13.762;2023-05-09T04:42:13;99975.88;;;10.94;49.82
47166;BME280;32930;51.112;13.762;2023-05-09T04:44:39;99971.72;;;11.03;49.89
47166;BME280;32930;51.112;13.762;2023-05-09T04:47:04;99971.41;;;10.74;49.95
47166;BME280;32930;51.112;13.762;2023-05-09T04:49:29;99968.44;;;11.17;49.51
47166;BME280;32930;51.112;13.762;2023-05-09T04:51:55;99967.63;;;11.19;49.33
47166;BME280;32930;51.112;13.762;2023-05-09T04:54:20;99969.34;;;11.23;49.38
47166;BME280;32930;51.112;13.762;2023-05-09T04:56:45;99965.38;;;11.57;49.62
47166;BME280;32930;51.112;13.762;2023-05-09T04:59:11;99970.66;;;11.76;48.97
47166;BME280;32930;51.112;13.762;2023-05-09T05:01:36;99968.00;;;11.68;48.43
47166;BME280;32930;51.112;13.762;2023-05-09T05:04:01;99964.00;;;12.04;48.02
47166;BME280;32930;51.112;13.762;2023-05-09T05:06:27;99963.25;;;12.23;47.75
47166;BME280;32930;51.112;13.762;2023-05-09T05:08:52;99963.13;;;12.00;48.13
47166;BME280;32930;51.112;13.762;2023-05-09T05:11:17;99965.59;;;11.88;47.80
47166;BME280;32930;51.112;13.762;2023-05-09T05:13:43;99965.88;;;12.29;47.42
47166;BME280;32930;51.112;13.762;2023-05-09T05:27:47;99946.00;;;17.84;37.23
47166;BME280;32930;51.112;13.762;2023-05-09T05:30:13;99946.78;;;17.91;36.54
47166;BME280;32930;51.112;13.762;2023-05-09T05:35:14;99940.91;;;17.79;37.06
47166;BME280;32930;51.112;13.762;2023-05-09T05:37:46;99940.25;;;17.67;37.05
47166;BME280;32930;51.112;13.762;2023-05-09T05:40:11;99945.69;;;16.96;37.63
47166;BME280;32930;51.112;13.762;2023-05-09T05:42:37;99961.56;;;15.97;39.19
47166;BME280;32930;51.112;13.762;2023-05-09T05:45:02;99950.94;;;16.20;39.03
47166;BME280;32930;51.112;13.762;2023-05-09T05:47:34;99942.00;;;16.45;39.36
47166;BME280;32930;51.112;13.762;2023-05-09T05:50:00;99948.94;;;15.59;39.59
47166;BME280;32930;51.112;13.762;2023-05-09T05:52:26;99973.63;;;14.75;41.10
47166;BME280;32930;51.112;13.762;2023-05-09T05:54:52;99948.63;;;14.84;41.44
47166;BME280;32930;51.112;13.762;2023-05-09T05:57:17;99944.50;;;14.39;42.07
47166;BME280;32930;51.112;13.762;2023-05-09T05:59:43;99948.00;;;14.18;42.90
47166;BME280;32930;51.112;13.762;2023-05-09T06:02:08;99939.13;;;14.90;42.00
47166;BME280;32930;51.112;13.762;2023-05-09T06:04:33;99933.84;;;16.07;40.14
47166;BME280;32930;51.112;13.762;2023-05-09T06:06:58;99919.94;;;16.83;38.80
47166;BME280;32930;51.112;13.762;2023-05-09T06:09:24;99925.97;;;16.85;38.16
47166;BME280;32930;51.112;13.762;2023-05-09T06:14:22;99924.06;;;15.45;39.89
47166;BME280;32930;51.112;13.762;2023-05-09T06:16:47;99925.38;;;15.91;39.63
47166;BME280;32930;51.112;13.762;2023-05-09T06:19:12;99915.25;;;15.71;40.36
47166;BME280;32930;51.112;13.762;2023-05-09T06:21:37;99917.44;;;16.08;40.70
47166;BME280;32930;51.112;13.762;2023-05-09T06:24:03;99911.56;;;15.92;39.60
47166;BME280;32930;51.112;13.762;2023-05-09T06:26:29;99914.81;;;15.15;41.26
47166;BME280;32930;51.112;13.762;2023-05-09T06:28:54;99914.41;;;15.63;40.98
47166;BME280;32930;51.112;13.762;2023-05-09T06:31:20;99910.00;;;15.79;40.82
47166;BME280;32930;51.112;13.762;2023-05-09T06:33:45;99907.03;;;15.21;41.37
47166;BME280;32930;51.112;13.762;2023-05-09T06:36:10;99909.88;;;14.81;41.62
47166;BME280;32930;51.112;13.762;2023-05-09T06:38:35;99907.41;;;14.69;41.12
47166;BME280;32930;51.112;13.762;2023-05-09T06:41:01;99892.84;;;14.48;41.54
47166;BME280;32930;51.112;13.762;2023-05-09T06:43:29;99902.25;;;14.65;42.17
47166;BME280;32930;51.112;13.762;2023-05-09T06:45:54;99913.44;;;14.65;42.12
47166;BME280;32930;51.112;13.762;2023-05-09T06:48:19;99889.44;;;14.37;41.96
47166;BME280;32930;51.112;13.762;2023-05-09T06:50:45;99893.59;;;14.69;41.68
47166;BME280;32930;51.112;13.762;2023-05-09T06:53:10;99898.00;;;14.47;41.78
47166;BME280;32930;51.112;13.762;2023-05-09T06:55:35;99890.38;;;14.24;41.74
47166;BME280;32930;51.112;13.762;2023-05-09T07:36:31;99848.66;;;15.90;40.08
47166;BME280;32930;51.112;13.762;2023-05-09T07:38:57;99838.53;;;15.70;40.17
47166;BME280;32930;51.112;13.762;2023-05-09T07:41:22;99839.13;;;15.92;40.68
47166;BME280;32930;51.112;13.762;2023-05-09T07:43:47;99828.25;;;15.61;40.82
47166;BME280;32930;51.112;13.762;2023-05-09T07:46:12;99823.06;;;15.67;40.98
47166;BME280;32930;51.112;13.762;2023-05-09T07:48:38;99827.72;;;15.28;41.20
47166;BME280;32930;51.112;13.762;2023-05-09T07:51:03;99810.00;;;15.76;41.29
47166;BME280;32930;51.112;13.762;2023-05-09T07:53:28;99811.28;;;16.11;41.28
47166;BME280;32930;51.112;13.762;2023-05-09T07:55:54;99814.09;;;15.94;41.07
47166;BME280;32930;51.112;13.762;2023-05-09T07:58:19;99806.34;;;15.95;40.94
47166;BME280;32930;51.112;13.762;2023-05-09T08:00:44;99812.69;;;15.70;40.50
47166;BME280;32930;51.112;13.762;2023-05-09T08:03:10;99788.28;;;15.88;40.95
47166;BME280;32930;51.112;13.762;2023-05-09T08:10:45;99797.75;;;15.89;40.46
47166;BME280;32930;51.112;13.762;2023-05-09T08:13:10;99805.81;;;15.67;40.45
47166;BME280;32930;51.112;13.762;2023-05-09T08:15:36;99810.44;;;16.12;40.59
47166;BME280;32930;51.112;13.762;2023-05-09T08:18:01;99807.53;;;15.62;39.44
47166;BME280;32930;51.112;13.762;2023-05-09T08:20:26;99797.88;;;15.81;39.37
47166;BME280;32930;51.112;13.762;2023-05-09T08:22:52;99796.69;;;16.07;39.15
47166;BME280;32930;51.112;13.762;2023-05-09T08:25:17;99806.09;;;16.11;38.16
47166;BME280;32930;51.112;13.762;2023-05-09T08:27:44;99792.19;;;16.21;38.52
47166;BME280;32930;51.112;13.762;2023-05-09T08:32:42;99779.44;;;16.64;38.84
47166;BME280;32930;51.112;13.762;2023-05-09T08:35:07;99780.69;;;16.96;38.45
47166;BME280;32930;51.112;13.762;2023-05-09T08:37:34;99778.63;;;17.15;38.68
47166;BME280;32930;51.112;13.762;2023-05-09T08:39:59;99775.16;;;17.16;37.73
47166;BME280;32930;51.112;13.762;2023-05-09T08:42:24;99767.56;;;17.52;38.26
47166;BME280;32930;51.112;13.762;2023-05-09T08:44:50;99767.50;;;17.55;37.51
47166;BME280;32930;51.112;13.762;2023-05-09T08:47:15;99761.06;;;16.81;37.70
47166;BME280;32930;51.112;13.762;2023-05-09T08:49:41;99755.94;;;16.21;38.40
47166;BME280;32930;51.112;13.762;2023-05-09T08:52:09;99754.06;;;17.34;37.96
47166;BME280;32930;51.112;13.762;2023-05-09T08:54:35;99753.50;;;17.64;37.28
47166;BME280;32930;51.112;13.762;2023-05-09T08:57:00;99747.97;;;17.80;37.11
47166;BME280;32930;51.112;13.762;2023-05-09T08:59:26;99747.47;;;17.61;36.75
47166;BME280;32930;51.112;13.762;2023-05-09T09:04:27;99748.88;;;17.34;36.96
47166;BME280;32930;51.112;13.762;2023-05-09T09:06:52;99742.94;;;17.71;37.60
47166;BME280;32930;51.112;13.762;2023-05-09T09:09:17;99734.53;;;17.60;36.67
47166;BME280;32930;51.112;13.762;2023-05-09T09:11:44;99741.22;;;17.72;36.89
47166;BME280;32930;51.112;13.762;2023-05-09T09:21:52;99747.13;;;18.19;35.81
47166;BME280;32930;51.112;13.762;2023-05-09T09:24:21;99735.22;;;17.70;36.11
47166;BME280;32930;51.112;13.762;2023-05-09T09:29:42;99730.63;;;17.39;35.24
47166;BME280;32930;51.112;13.762;2023-05-09T09:32:08;99725.75;;;18.08;35.75
47166;BME280;32930;51.112;13.762;2023-05-09T09:34:33;99729.53;;;18.67;34.37
47166;BME280;32930;51.112;13.762;2023-05-09T09:36:58;99742.41;;;18.36;34.76
47166;BME280;32930;51.112;13.762;2023-05-09T09:39:24;99734.84;;;18.63;35.84
47166;BME280;32930;51.112;13.762;2023-05-09T09:41:54;99718.53;;;18.56;35.80
47166;BME280;32930;51.112;13.762;2023-05-09T09:44:30;99737.47;;;18.61;35.36
47166;BME280;32930;51.112;13.762;2023-05-09T09:46:56;99739.47;;;18.50;34.49
47166;BME280;32930;51.112;13.762;2023-05-09T09:49:22;99738.09;;;18.71;34.33
47166;BME280;32930;51.112;13.762;2023-05-09T09:51:54;99717.97;;;18.81;33.33
47166;BME280;32930;51.112;13.762;2023-05-09T09:54:19;99714.72;;;18.71;34.10
47166;BME280;32930;51.112;13.762;2023-05-09T09:56:46;99698.72;;;19.20;33.67
47166;BME280;32930;51.112;13.762;2023-05-09T09:59:21;99710.16;;;19.13;34.29
47166;BME280;32930;51.112;13.762;2023-05-09T10:04:17;99716.06;;;18.87;34.95
47166;BME280;32930;51.112;13.762;2023-05-09T10:06:50;99710.91;;;18.86;34.83
47166;BME280;32930;51.112;13.762;2023-05-09T10:09:15;99715.63;;;18.68;35.25
47166;BME280;32930;51.112;13.762;2023-05-09T10:11:41;99706.63;;;19.16;35.15
47166;BME280;32930;51.112;13.762;2023-05-09T10:14:06;99699.16;;;19.35;34.51
47166;BME280;32930;51.112;13.762;2023-05-09T10:16:32;99693.63;;;19.16;34.03
47166;BME280;32930;51.112;13.762;2023-05-09T10:18:59;99691.47;;;19.91;34.56
47166;BME280;32930;51.112;13.762;2023-05-09T10:21:25;99693.59;;;19.47;35.22
47166;BME280;32930;51.112;13.762;2023-05-09T10:23:50;99698.34;;;19.02;34.27
47166;BME280;32930;51.112;13.762;2023-05-09T10:26:19;99677.44;;;19.67;34.31
47166;BME280;32930;51.112;13.762;2023-05-09T10:28:49;99684.13;;;19.44;32.80
47166;BME280;32930;51.112;13.762;2023-05-09T10:31:21;99668.16;;;19.57;32.53
47166;BME280;32930;51.112;13.762;2023-05-09T10:33:48;99670.44;;;19.39;33.08
47166;BME280;32930;51.112;13.762;2023-05-09T10:36:20;99668.97;;;20.17;33.12
47166;BME280;32930;51.112;13.762;2023-05-09T10:38:46;99668.19;;;20.40;33.42
47166;BME280;32930;51.112;13.762;2023-05-09T10:41:15;99666.97;;;20.51;32.88
47166;BME280;32930;51.112;13.762;2023-05-09T10:43:41;99660.78;;;20.55;32.83
47166;BME280;32930;51.112;13.762;2023-05-09T10:46:07;99654.97;;;20.46;32.35
47166;BME280;32930;51.112;13.762;2023-05-09T10:48:33;99646.59;;;20.36;32.47
47166;BME280;32930;51.112;13.762;2023-05-09T10:50:59;99641.06;;;19.94;31.45
47166;BME280;32930;51.112;13.762;2023-05-09T10:53:39;99634.41;;;19.55;30.97
47166;BME280;32930;51.112;13.762;2023-05-09T10:56:04;99637.69;;;19.90;32.26
47166;BME280;32930;51.112;13.762;2023-05-09T10:58:30;99633.38;;;19.89;32.27
47166;BME280;32930;51.112;13.762;2023-05-09T11:00:58;99625.78;;;20.09;33.04
47166;BME280;32930;51.112;13.762;2023-05-09T11:03:24;99631.56;;;19.63;31.89
47166;BME280;32930;51.112;13.762;2023-05-09T11:05:52;99610.78;;;20.18;31.48
47166;BME280;32930;51.112;13.762;2023-05-09T11:08:29;99609.06;;;19.90;31.54
47166;BME280;32930;51.112;13.762;2023-05-09T11:10:56;99609.94;;;19.89;32.22
47166;BME280;32930;51.112;13.762;2023-05-09T11:13:22;99602.72;;;20.24;31.52
47166;BME280;32930;51.112;13.762;2023-05-09T11:18:26;99598.44;;;19.96;31.73
47166;BME280;32930;51.112;13.762;2023-05-09T11:20:51;99587.72;;;20.57;32.09
47166;BME280;32930;51.112;13.762;2023-05-09T11:23:26;99599.97;;;19.75;32.34
47166;BME280;32930;51.112;13.762;2023-05-09T11:25:52;99589.97;;;20.16;30.98
47166;BME280;32930;51.112;13.762;2023-05-09T11:28:27;99590.84;;;19.60;31.73
47166;BME280;32930;51.112;13.762;2023-05-09T11:30:54;99578.81;;;20.12;31.86
47166;BME280;32930;51.112;13.762;2023-05-09T11:33:32;99582.59;;;19.76;31.05
47166;BME280;32930;51.112;13.762;2023-05-09T11:36:16;99577.47;;;19.73;31.00
47166;BME280;32930;51.112;13.762;2023-05-09T11:38:51;99572.13;;;19.49;31.44
47166;BME280;32930;51.112;13.762;2023-05-09T11:41:23;99567.31;;;19.37;32.28
47166;BME280;32930;51.112;13.762;2023-05-09T11:43:49;99560.88;;;20.03;31.70
47166;BME280;32930;51.112;13.762;2023-05-09T11:46:18;99554.69;;;19.81;31.54
47166;BME280;32930;51.112;13.762;2023-05-09T11:48:43;99562.38;;;19.84;31.10
47166;BME280;32930;51.112;13.762;2023-05-09T11:51:15;99550.47;;;19.49;31.72
47166;BME280;32930;51.112;13.762;2023-05-09T11:53:45;99534.94;;;19.45;31.32
47166;BME280;32930;51.112;13.762;2023-05-09T11:56:13;99550.09;;;19.33;30.87
47166;BME280;32930;51.112;13.762;2023-05-09T11:58:39;99551.06;;;18.68;31.74
47166;BME280;32930;51.112;13.762;2023-05-09T12:01:05;99533.69;;;19.29;31.59
47166;BME280;32930;51.112;13.762;2023-05-09T12:03:31;99515.75;;;19.21;31.56
47166;BME280;32930;51.112;13.762;2023-05-09T12:05:56;99516.13;;;19.09;31.67
47166;BME280;32930;51.112;13.762;2023-05-09T12:08:24;99526.59;;;19.06;32.47
47166;BME280;32930;51.112;13.762;2023-05-09T12:10:49;99522.16;;;19.10;30.94
47166;BME280;32930;51.112;13.762;2023-05-09T12:13:14;99515.72;;;18.93;31.31
47166;BME280;32930;51.112;13.762;2023-05-09T12:15:40;99508.41;;;18.77;31.05
47166;BME280;32930;51.112;13.762;2023-05-09T12:18:08;99502.72;;;18.62;31.13
47166;BME280;32930;51.112;13.762;2023-05-09T12:23:33;99508.59;;;18.69;32.34
47166;BME280;32930;51.112;13.762;2023-05-09T12:25:58;99518.75;;;18.78;32.30
47166;BME280;32930;51.112;13.762;2023-05-09T12:28:24;99502.81;;;18.90;32.29
47166;BME280;32930;51.112;13.762;2023-05-09T12:30:49;99508.34;;;18.80;31.66
47166;BME280;32930;51.112;13.762;2023-05-09T12:33:15;99501.03;;;18.61;32.33
47166;BME280;32930;51.112;13.762;2023-05-09T12:35:47;99501.38;;;18.49;32.23
47166;BME280;32930;51.112;13.762;2023-05-09T12:38:25;99499.28;;;18.30;31.70
47166;BME280;32930;51.112;13.762;2023-05-09T12:43:23;99491.88;;;18.48;34.50
47166;BME280;32930;51.112;13.762;2023-05-09T12:48:28;99481.19;;;18.59;34.30
47166;BME280;32930;51.112;13.762;2023-05-09T12:51:19;99467.59;;;18.49;34.12
47166;BME280;32930;51.112;13.762;2023-05-09T13:14:14;99448.84;;;18.38;33.15
47166;BME280;32930;51.112;13.762;2023-05-09T13:16:40;99440.78;;;18.48;34.27
47166;BME280;32930;51.112;13.762;2023-05-09T13:19:05;99435.53;;;18.50;34.26
47166;BME280;32930;51.112;13.762;2023-05-09T13:21:31;99432.72;;;18.58;34.17
47166;BME280;32930;51.112;13.762;2023-05-09T13:23:56;99428.47;;;18.53;33.27
47166;BME280;32930;51.112;13.762;2023-05-09T13:26:22;99424.03;;;18.59;32.65
47166;BME280;32930;51.112;13.762;2023-05-09T13:28:47;99424.16;;;18.84;34.21
47166;BME280;32930;51.112;13.762;2023-05-09T13:31:12;99411.84;;;18.61;33.66
47166;BME280;32930;51.112;13.762;2023-05-09T13:36:10;99409.50;;;18.22;33.24
47166;BME280;32930;51.112;13.762;2023-05-09T13:38:35;99415.41;;;18.27;33.82
47166;BME280;32930;51.112;13.762;2023-05-09T13:41:10;99382.41;;;18.30;33.54
47166;BME280;32930;51.112;13.762;2023-05-09T13:43:37;99381.41;;;18.35;33.57
47166;BME280;32930;51.112;13.762;2023-05-09T13:46:18;99376.91;;;18.41;34.08
47166;BME280;32930;51.112;13.762;2023-05-09T13:48:45;99375.06;;;18.45;34.70
47166;BME280;32930;51.112;13.762;2023-05-09T13:51:11;99369.53;;;18.57;34.32
47166;BME280;32930;51.112;13.762;2023-05-09T13:53:49;99364.34;;;18.56;34.31
47166;BME280;32930;51.112;13.762;2023-05-09T13:56:17;99355.97;;;18.47;34.15
47166;BME280;32930;51.112;13.762;2023-05-09T13:58:42;99355.00;;;18.50;35.20
47166;BME280;32930;51.112;13.762;2023-05-09T14:03:45;99355.44;;;18.64;35.06
47166;BME280;32930;51.112;13.762;2023-05-09T14:08:48;99342.25;;;18.70;35.41
47166;BME280;32930;51.112;13.762;2023-05-09T15:31:06;99252.09;;;18.18;36.29
